This is the latest recevied weather packets stored in our database for station/object EA7HQL-10. If no packets are shown the sender has not sent any weather packets the latest 1 day(s).
| Time | Temp. | Humidity | Pressure | Rain* | Wind** | Luminosity | Snow |
|---|---|---|---|---|---|---|---|
| 1777998889 | 22.78° C | 48% | 1009.1 hPa | 0 mm | 1.34 m/s, 13° | - | - |
| 1777998609 | 22.78° C | 46% | 1009.3 hPa | 0 mm | 1.34 m/s, 272° | - | - |
| 1777998369 | 24.44° C | 38% | 1009.2 hPa | 0 mm | 0 m/s | - | - |
| 1777998099 | 23.89° C | 41% | 1009.1 hPa | 0 mm | 0 m/s | - | - |
| 1777997819 | 23.89° C | 46% | 1008.8 hPa | 0 mm | 2.68 m/s, 198° | - | - |
| 1777997533 | 23.89° C | 43% | 1008.8 hPa | 0 mm | 1.79 m/s, 200° | - | - |
| 1777997279 | 23.89° C | 48% | 1008.8 hPa | 0 mm | 1.79 m/s, 184° | - | - |
| 1777997029 | 23.33° C | 49% | 1008.9 hPa | 0 mm | 0.89 m/s, 143° | - | - |
| 1777996769 | 22.78° C | 50% | 1009 hPa | 0 mm | 0 m/s | - | - |
| 1777996524 | 22.78° C | 51% | 1009 hPa | 0 mm | 1.79 m/s, 247° | - | - |
| 1777996264 | 23.89° C | 48% | 1009.2 hPa | 0 mm | 3.58 m/s, 216° | - | - |
| 1777996014 | 23.89° C | 47% | 1009.1 hPa | 0 mm | 4.47 m/s, 218° | - | - |
| 1777995774 | 22.78° C | 51% | 1008.9 hPa | 0 mm | 0.89 m/s, 106° | - | - |
| 1777995489 | 23.89° C | 51% | 1009 hPa | 0 mm | 3.58 m/s, 176° | - | - |
| 1777995189 | 23.89° C | 51% | 1009.2 hPa | 0 mm | 2.24 m/s, 247° | - | - |
| 1777994939 | 23.33° C | 50% | 1009.3 hPa | 0 mm | 2.24 m/s, 232° | - | - |
| 1777994639 | 22.22° C | 53% | 1009.2 hPa | 0 mm | 2.24 m/s, 204° | - | - |
| 1777994369 | 22.78° C | 54% | 1009.5 hPa | 0 mm | 1.34 m/s, 187° | - | - |
| 1777994099 | 23.33° C | 53% | 1009.2 hPa | 0 mm | 6.26 m/s, 216° | - | - |
| 1777993814 | 23.89° C | 48% | 1009.4 hPa | 0 mm | 2.24 m/s, 179° | - | - |
| 1777993524 | 23.33° C | 50% | 1009.5 hPa | 0 mm | 0.89 m/s, 149° | - | - |
| 1777993264 | 22.78° C | 51% | 1009.3 hPa | 0 mm | 4.92 m/s, 214° | - | - |
| 1777993009 | 23.33° C | 50% | 1009.5 hPa | 0 mm | 3.58 m/s, 213° | - | - |
| 1777992754 | 22.78° C | 52% | 1009.3 hPa | 0 mm | 4.02 m/s, 225° | - | - |
| 1777992459 | 22.78° C | 52% | 1009.5 hPa | 0 mm | 3.13 m/s, 159° | - | - |
* Rain latest hour (hover to see other rain measurements)
** Current wind speed in m/s (hover to see current wind gust speed)